createdAt,value
2019-04-28T00:00:57.893Z,4.50
2019-04-28T00:03:45.131Z,4.60
2019-04-28T00:06:32.116Z,4.60
2019-04-28T00:09:21.281Z,4.60
2019-04-28T00:12:08.903Z,4.60
2019-04-28T00:14:56.013Z,4.60
2019-04-28T00:17:44.441Z,4.60
2019-04-28T00:20:36.705Z,4.60
2019-04-28T00:23:28.630Z,4.50
2019-04-28T00:26:26.225Z,4.60
2019-04-28T00:29:13.388Z,4.60
2019-04-28T00:32:01.199Z,4.60
2019-04-28T00:34:47.974Z,4.60
2019-04-28T00:37:36.041Z,4.60
2019-04-28T00:40:23.053Z,4.60
2019-04-28T00:43:10.866Z,4.60
2019-04-28T00:45:57.983Z,4.60
2019-04-28T00:48:45.850Z,4.70
2019-04-28T00:51:32.982Z,4.70
2019-04-28T00:54:19.715Z,4.70
2019-04-28T00:57:07.012Z,4.70
2019-04-28T00:59:58.513Z,4.70
2019-04-28T01:02:43.313Z,4.70
2019-04-28T01:05:31.160Z,4.70
2019-04-28T01:08:18.278Z,4.80
2019-04-28T01:11:05.512Z,4.80
2019-04-28T01:13:52.653Z,4.80
2019-04-28T01:16:53.370Z,4.80
2019-04-28T01:19:44.426Z,4.80
2019-04-28T01:22:31.327Z,4.70
2019-04-28T01:25:20.299Z,4.70
2019-04-28T01:28:07.536Z,4.70
2019-04-28T01:31:14.559Z,4.80
2019-04-28T01:34:21.012Z,4.70
2019-04-28T01:37:09.643Z,4.70
2019-04-28T01:39:57.004Z,4.70
2019-04-28T01:42:44.276Z,4.80
2019-04-28T01:45:31.096Z,4.80
2019-04-28T01:48:19.861Z,4.90
2019-04-28T01:51:06.751Z,4.80
2019-04-28T01:53:53.973Z,4.80
2019-04-28T01:56:41.173Z,4.90
2019-04-28T01:59:30.077Z,4.80
2019-04-28T02:02:16.730Z,4.80
2019-04-28T02:05:04.870Z,4.90
2019-04-28T02:07:52.260Z,4.80
2019-04-28T02:10:40.152Z,4.90
2019-04-28T02:13:27.618Z,4.90
2019-04-28T02:16:14.918Z,4.90
2019-04-28T02:19:01.837Z,4.80
2019-04-28T02:21:50.769Z,4.80
2019-04-28T02:24:38.001Z,4.90
2019-04-28T02:27:25.285Z,4.90
2019-04-28T02:30:12.461Z,4.90
2019-04-28T02:33:01.686Z,4.90
2019-04-28T02:35:50.944Z,4.90
2019-04-28T02:38:37.303Z,4.80
2019-04-28T02:41:24.237Z,4.80
2019-04-28T02:44:11.312Z,4.80
2019-04-28T02:47:00.754Z,4.70
2019-04-28T02:49:50.390Z,4.60
2019-04-28T02:52:53.927Z,4.60
2019-04-28T02:55:41.361Z,4.50
2019-04-28T02:58:31.025Z,4.50
2019-04-28T03:01:22.790Z,4.50
2019-04-28T03:04:06.125Z,4.40
2019-04-28T03:06:53.303Z,4.40
2019-04-28T03:09:40.630Z,4.30
2019-04-28T03:12:27.674Z,4.30
2019-04-28T03:15:14.829Z,4.20
2019-04-28T03:18:02.292Z,4.20
2019-04-28T03:20:51.488Z,4.20
2019-04-28T03:23:40.550Z,4.10
2019-04-28T03:26:34.440Z,4.10
2019-04-28T03:29:40.246Z,4.10
2019-04-28T03:32:44.654Z,4.10
2019-04-28T03:35:22.901Z,4.10
2019-04-28T03:38:08.067Z,4.10
2019-04-28T03:40:55.556Z,4.10
2019-04-28T03:43:42.673Z,4.00
2019-04-28T03:46:31.582Z,3.90
2019-04-28T03:49:21.081Z,3.90
2019-04-28T03:52:10.753Z,3.90
2019-04-28T03:54:56.941Z,3.90
2019-04-28T03:57:44.291Z,3.80
2019-04-28T04:00:31.568Z,3.70
2019-04-28T04:03:20.934Z,3.80
2019-04-28T04:06:10.232Z,3.70
2019-04-28T04:08:56.050Z,3.70
2019-04-28T04:11:44.383Z,3.70
2019-04-28T04:14:33.000Z,3.60
2019-04-28T04:17:21.783Z,3.70
2019-04-28T04:20:11.056Z,3.70
2019-04-28T04:22:57.388Z,3.60
2019-04-28T04:25:44.641Z,3.70
2019-04-28T04:28:31.848Z,3.60
2019-04-28T04:31:20.022Z,3.70
2019-04-28T04:34:07.353Z,3.70
2019-04-28T04:36:54.575Z,3.70
2019-04-28T04:39:41.839Z,3.80
2019-04-28T04:42:30.691Z,3.80
2019-04-28T04:45:20.159Z,3.80
2019-04-28T04:48:06.535Z,3.90
2019-04-28T04:50:53.522Z,3.80
2019-04-28T04:53:40.931Z,3.80
2019-04-28T04:56:30.228Z,3.80
2019-04-28T04:59:17.024Z,3.80
2019-04-28T05:02:05.725Z,3.80
2019-04-28T05:04:54.921Z,3.90
2019-04-28T05:07:41.877Z,4.00
2019-04-28T05:10:30.392Z,4.00
2019-04-28T05:13:17.378Z,4.00
2019-04-28T05:16:04.653Z,3.90
2019-04-28T05:18:51.833Z,4.00
2019-04-28T05:21:40.355Z,4.00
2019-04-28T05:24:30.399Z,4.10
2019-04-28T05:27:21.409Z,4.20
2019-04-28T05:30:10.725Z,4.30
2019-04-28T05:32:58.157Z,4.50
2019-04-28T05:35:45.480Z,4.60
2019-04-28T05:38:32.621Z,4.40
2019-04-28T05:41:19.713Z,4.50
2019-04-28T05:44:06.874Z,4.60
2019-04-28T05:46:53.973Z,4.70
2019-04-28T05:49:42.641Z,4.80
2019-04-28T05:52:34.225Z,4.90
2019-04-28T05:55:25.413Z,5.00
2019-04-28T05:58:16.517Z,5.00
2019-04-28T06:01:14.212Z,5.10
2019-04-28T06:04:01.134Z,5.20
2019-04-28T06:06:50.093Z,5.40
2019-04-28T06:09:42.128Z,5.60
2019-04-28T06:12:30.292Z,5.70
2019-04-28T06:15:20.344Z,5.70
2019-04-28T06:18:07.030Z,5.60
2019-04-28T06:20:53.980Z,5.70
2019-04-28T06:23:41.028Z,5.90
2019-04-28T06:26:28.357Z,5.80
2019-04-28T06:29:15.460Z,5.80
2019-04-28T06:32:02.545Z,5.90
2019-04-28T06:34:49.817Z,5.90
2019-04-28T06:37:36.812Z,5.90
2019-04-28T06:40:23.796Z,5.90
2019-04-28T06:43:11.018Z,5.90
2019-04-28T06:45:58.043Z,5.80
2019-04-28T06:48:45.328Z,6.00
2019-04-28T06:51:32.515Z,6.00
2019-04-28T06:54:19.727Z,6.20
2019-04-28T06:57:06.741Z,6.20
2019-04-28T06:59:53.612Z,6.20
2019-04-28T07:02:40.652Z,6.00
2019-04-28T07:05:27.423Z,6.00
2019-04-28T07:08:14.594Z,6.10
2019-04-28T07:11:01.316Z,6.10
2019-04-28T07:13:48.360Z,5.90
2019-04-28T07:16:35.650Z,6.00
2019-04-28T07:19:22.949Z,5.90
2019-04-28T07:22:14.809Z,6.00
2019-04-28T07:25:01.498Z,6.10
2019-04-28T07:27:48.496Z,6.30
2019-04-28T07:30:37.470Z,6.70
2019-04-28T07:33:35.561Z,6.40
2019-04-28T07:36:13.445Z,7.20
2019-04-28T07:39:00.682Z,7.50
2019-04-28T07:41:47.809Z,7.90
2019-04-28T07:44:34.649Z,8.20
2019-04-28T07:47:21.393Z,8.10
2019-04-28T07:50:08.963Z,8.10
2019-04-28T07:52:57.653Z,7.50
2019-04-28T07:55:44.777Z,7.80
2019-04-28T07:58:31.943Z,8.40
2019-04-28T08:01:19.387Z,8.30
2019-04-28T08:04:06.424Z,7.70
2019-04-28T08:06:53.631Z,8.00
2019-04-28T08:09:40.468Z,8.30
2019-04-28T08:12:27.773Z,8.00
2019-04-28T08:15:14.954Z,8.80
2019-04-28T08:18:02.221Z,8.50
2019-04-28T08:20:49.226Z,8.40
2019-04-28T08:23:46.628Z,9.30
2019-04-28T08:26:24.893Z,9.50
2019-04-28T08:29:12.333Z,9.70
2019-04-28T08:32:15.906Z,8.60
2019-04-28T08:35:02.876Z,8.10
2019-04-28T08:37:50.241Z,8.20
2019-04-28T08:40:37.516Z,8.80
2019-04-28T08:43:24.574Z,8.70
2019-04-28T08:46:11.922Z,8.10
2019-04-28T08:48:59.377Z,8.20
2019-04-28T08:51:46.666Z,8.50
2019-04-28T08:54:33.525Z,8.30
2019-04-28T08:57:20.586Z,8.00
2019-04-28T09:00:10.303Z,7.80
2019-04-28T09:02:57.334Z,8.00
2019-04-28T09:05:44.701Z,7.90
2019-04-28T09:08:31.845Z,8.50
2019-04-28T09:11:19.178Z,9.00
2019-04-28T09:14:06.523Z,9.70
2019-04-28T09:16:53.409Z,10.20
2019-04-28T09:19:42.435Z,9.80
2019-04-28T09:22:29.499Z,9.90
2019-04-28T09:25:18.245Z,10.00
2019-04-28T09:28:05.125Z,10.60
2019-04-28T09:30:52.125Z,11.70
2019-04-28T09:33:40.124Z,13.00
2019-04-28T09:36:28.069Z,12.70
2019-04-28T09:39:16.473Z,11.70
2019-04-28T09:42:22.088Z,11.10
2019-04-28T09:45:16.969Z,13.00
2019-04-28T09:48:04.581Z,13.90
2019-04-28T09:50:52.384Z,12.50
2019-04-28T09:53:39.538Z,11.90
2019-04-28T09:56:27.037Z,10.50
2019-04-28T09:59:14.044Z,10.70
2019-04-28T10:02:01.139Z,10.80
2019-04-28T10:04:48.349Z,10.90
2019-04-28T10:07:35.550Z,11.80
2019-04-28T10:10:22.926Z,12.60
2019-04-28T10:13:10.157Z,12.60
2019-04-28T10:15:57.467Z,12.40
2019-04-28T10:18:44.465Z,11.80
2019-04-28T10:21:31.165Z,11.30
2019-04-28T10:24:18.710Z,10.10
2019-04-28T10:27:06.617Z,10.40
2019-04-28T10:29:53.634Z,10.50
2019-04-28T10:32:41.013Z,10.90
2019-04-28T10:35:28.419Z,11.40
2019-04-28T10:38:15.490Z,12.20
2019-04-28T10:41:07.461Z,11.70
2019-04-28T10:43:54.727Z,11.30
2019-04-28T10:46:42.192Z,11.70
2019-04-28T10:49:29.967Z,11.40
2019-04-28T10:52:16.735Z,11.90
2019-04-28T10:55:05.049Z,11.30
2019-04-28T10:57:52.508Z,13.80
2019-04-28T11:00:41.508Z,15.20
2019-04-28T11:03:29.131Z,15.80
2019-04-28T11:06:18.051Z,16.60
2019-04-28T11:09:30.325Z,14.30
2019-04-28T11:12:14.522Z,14.30
2019-04-28T11:15:02.194Z,16.90
2019-04-28T11:17:49.425Z,17.40
2019-04-28T11:20:37.274Z,16.20
2019-04-28T11:23:24.941Z,15.20
2019-04-28T11:26:12.889Z,15.10
2019-04-28T11:29:00.202Z,14.50
2019-04-28T11:31:48.032Z,14.60
2019-04-28T11:34:49.553Z,14.30
2019-04-28T11:37:37.016Z,13.80
2019-04-28T11:40:24.745Z,13.70
2019-04-28T11:43:12.665Z,14.10
2019-04-28T11:46:00.525Z,14.50
2019-04-28T11:48:47.970Z,14.40
2019-04-28T11:51:35.681Z,16.10
2019-04-28T11:54:24.208Z,16.00
2019-04-28T11:57:11.965Z,15.70
2019-04-28T11:59:59.894Z,16.10
2019-04-28T12:02:47.540Z,15.20
2019-04-28T12:05:38.460Z,14.90
2019-04-28T12:08:26.349Z,14.10
2019-04-28T12:11:18.925Z,14.00
2019-04-28T12:14:14.042Z,13.70
2019-04-28T12:17:06.135Z,13.10
2019-04-28T12:19:55.275Z,13.60
2019-04-28T12:22:43.190Z,14.80
2019-04-28T12:25:30.656Z,14.00
2019-04-28T12:28:18.634Z,15.70
2019-04-28T12:31:06.715Z,15.70
2019-04-28T12:33:54.549Z,14.20
2019-04-28T12:36:42.390Z,14.40
2019-04-28T12:39:30.071Z,13.20
2019-04-28T12:42:17.322Z,12.90
2019-04-28T12:45:06.380Z,11.30
2019-04-28T12:47:53.543Z,11.60
2019-04-28T12:50:45.277Z,12.10
2019-04-28T12:53:32.688Z,12.50
2019-04-28T12:56:19.600Z,12.30
2019-04-28T12:59:11.052Z,12.30
2019-04-28T13:02:02.670Z,11.70
2019-04-28T13:04:57.266Z,12.80
2019-04-28T13:07:44.310Z,13.20
2019-04-28T13:10:32.118Z,14.10
2019-04-28T13:13:20.097Z,16.20
2019-04-28T13:16:07.899Z,17.70
2019-04-28T13:18:55.482Z,18.60
2019-04-28T13:21:43.383Z,19.30
2019-04-28T13:24:31.449Z,19.80
2019-04-28T13:27:18.746Z,20.70
2019-04-28T13:30:07.399Z,20.90
2019-04-28T13:32:55.301Z,21.20
2019-04-28T13:35:42.951Z,20.60
2019-04-28T13:38:31.017Z,20.20
2019-04-28T13:41:18.550Z,20.90
2019-04-28T13:44:08.100Z,18.80
2019-04-28T13:46:55.539Z,17.10
2019-04-28T13:49:50.824Z,16.90
2019-04-28T13:52:38.602Z,15.70
2019-04-28T13:55:28.349Z,14.70
2019-04-28T13:58:20.397Z,14.10
2019-04-28T14:01:25.755Z,12.90
2019-04-28T14:04:23.796Z,12.30
2019-04-28T14:07:10.893Z,11.80
2019-04-28T14:09:57.650Z,11.70
2019-04-28T14:12:44.894Z,11.60
2019-04-28T14:15:32.502Z,11.40
2019-04-28T14:18:19.817Z,11.30
2019-04-28T14:21:08.031Z,10.80
2019-04-28T14:23:55.378Z,10.50
2019-04-28T14:26:42.950Z,10.40
2019-04-28T14:29:29.996Z,10.10
2019-04-28T14:32:17.216Z,10.00
2019-04-28T14:35:05.904Z,9.80
2019-04-28T14:37:52.953Z,10.90
2019-04-28T14:40:39.756Z,11.20
2019-04-28T14:43:26.721Z,10.60
2019-04-28T14:46:13.835Z,10.80
2019-04-28T14:49:01.199Z,11.70
2019-04-28T14:51:49.242Z,12.00
2019-04-28T14:54:36.972Z,14.60
2019-04-28T14:57:24.607Z,16.10
2019-04-28T15:00:14.313Z,17.10
2019-04-28T15:03:09.192Z,17.70
2019-04-28T15:05:58.253Z,18.50
2019-04-28T15:08:50.285Z,18.40
2019-04-28T15:11:45.571Z,18.50
2019-04-28T15:14:33.200Z,18.20
2019-04-28T15:17:20.775Z,19.00
2019-04-28T15:20:08.759Z,17.70
2019-04-28T15:22:56.473Z,18.60
2019-04-28T15:25:43.645Z,19.30
2019-04-28T15:28:31.849Z,18.70
2019-04-28T15:31:19.921Z,16.90
2019-04-28T15:34:07.385Z,16.40
2019-04-28T15:36:54.940Z,15.00
2019-04-28T15:39:42.838Z,14.20
2019-04-28T15:42:30.634Z,13.70
2019-04-28T15:45:18.291Z,13.80
2019-04-28T15:48:06.028Z,14.50
2019-04-28T15:50:53.648Z,14.80
2019-04-28T15:53:42.526Z,14.80
2019-04-28T15:56:31.928Z,13.60
2019-04-28T15:59:18.855Z,13.60
2019-04-28T16:02:06.372Z,13.80
2019-04-28T16:04:53.810Z,13.50
2019-04-28T16:07:40.735Z,13.10
2019-04-28T16:10:27.488Z,13.20
2019-04-28T16:13:15.051Z,13.50
2019-04-28T16:16:02.133Z,13.30
2019-04-28T16:18:49.241Z,12.60
2019-04-28T16:21:36.713Z,13.00
2019-04-28T16:24:24.114Z,12.70
2019-04-28T16:27:11.518Z,12.70
2019-04-28T16:29:58.763Z,12.60
2019-04-28T16:32:45.968Z,12.50
2019-04-28T16:35:33.037Z,12.20
2019-04-28T16:38:20.184Z,12.10
2019-04-28T16:41:09.066Z,11.80
2019-04-28T16:43:56.408Z,11.30
2019-04-28T16:46:43.152Z,11.60
2019-04-28T16:49:29.970Z,11.70
2019-04-28T16:52:17.014Z,11.50
2019-04-28T16:55:19.958Z,11.50
2019-04-28T16:58:24.529Z,11.60
2019-04-28T17:01:18.938Z,11.30
2019-04-28T17:04:06.196Z,11.00
2019-04-28T17:06:53.602Z,11.40
2019-04-28T17:09:41.018Z,11.40
2019-04-28T17:12:28.127Z,11.50
2019-04-28T17:15:15.414Z,11.40
2019-04-28T17:18:02.747Z,11.60
2019-04-28T17:20:50.005Z,11.80
2019-04-28T17:23:37.302Z,12.10
2019-04-28T17:26:24.702Z,12.40
2019-04-28T17:29:11.705Z,11.80
2019-04-28T17:31:58.456Z,11.50
2019-04-28T17:34:45.660Z,11.00
2019-04-28T17:37:32.575Z,10.90
2019-04-28T17:40:20.471Z,10.80
2019-04-28T17:43:08.606Z,10.70
2019-04-28T17:45:55.883Z,10.60
2019-04-28T17:48:47.441Z,10.30
2019-04-28T17:51:34.826Z,9.90
2019-04-28T17:54:22.428Z,10.40
2019-04-28T17:57:09.705Z,10.60
2019-04-28T17:59:58.677Z,10.50
2019-04-28T18:02:59.327Z,10.40
2019-04-28T18:05:48.689Z,10.30
2019-04-28T18:08:35.814Z,9.70
2019-04-28T18:11:23.113Z,9.60
2019-04-28T18:14:10.354Z,9.90
2019-04-28T18:17:05.497Z,9.90
2019-04-28T18:19:52.423Z,9.90
2019-04-28T18:22:39.835Z,10.10
2019-04-28T18:25:27.005Z,10.00
2019-04-28T18:28:14.451Z,9.90
2019-04-28T18:31:03.474Z,9.80
2019-04-28T18:34:01.293Z,9.60
2019-04-28T18:36:50.000Z,9.50
2019-04-28T18:39:54.453Z,9.40
2019-04-28T18:42:46.072Z,9.30
2019-04-28T18:45:33.566Z,9.30
2019-04-28T18:48:20.827Z,9.40
2019-04-28T18:51:08.138Z,9.10
2019-04-28T18:53:55.670Z,9.00
2019-04-28T18:56:42.970Z,9.20
2019-04-28T18:59:30.143Z,9.30
2019-04-28T19:02:24.542Z,9.30
2019-04-28T19:05:12.180Z,9.40
2019-04-28T19:08:04.133Z,9.30
2019-04-28T19:11:08.026Z,9.30
2019-04-28T19:14:11.589Z,9.10
2019-04-28T19:17:00.626Z,8.90
2019-04-28T19:19:47.488Z,9.00
2019-04-28T19:22:35.907Z,9.20
2019-04-28T19:25:22.655Z,9.20
2019-04-28T19:28:09.737Z,9.00
2019-04-28T19:30:57.039Z,9.10
2019-04-28T19:33:44.625Z,9.00
2019-04-28T19:36:31.624Z,9.00
2019-04-28T19:39:19.018Z,9.10
2019-04-28T19:42:05.980Z,9.20
2019-04-28T19:44:53.135Z,9.00
2019-04-28T19:47:40.426Z,9.10
2019-04-28T19:50:27.888Z,9.20
2019-04-28T19:53:15.314Z,9.20
2019-04-28T19:56:19.280Z,9.20
2019-04-28T19:59:10.680Z,9.20
2019-04-28T20:01:58.016Z,9.20
2019-04-28T20:04:45.073Z,9.20
2019-04-28T20:07:32.314Z,9.30
2019-04-28T20:10:19.568Z,9.20
2019-04-28T20:13:06.608Z,9.10
2019-04-28T20:15:54.041Z,9.10
2019-04-28T20:18:40.851Z,9.00
2019-04-28T20:21:27.694Z,9.00
2019-04-28T20:24:14.880Z,9.10
2019-04-28T20:27:02.197Z,9.10
2019-04-28T20:29:49.077Z,9.10
2019-04-28T20:32:44.190Z,9.00
2019-04-28T20:35:32.891Z,9.10
2019-04-28T20:38:24.501Z,8.80
2019-04-28T20:41:16.782Z,8.80
2019-04-28T20:44:03.652Z,8.90
2019-04-28T20:46:50.659Z,8.80
2019-04-28T20:49:38.305Z,8.70
2019-04-28T20:52:25.390Z,8.70
2019-04-28T20:55:12.521Z,8.70
2019-04-28T20:57:59.541Z,8.70
2019-04-28T21:00:46.201Z,8.60
2019-04-28T21:03:33.161Z,8.50
2019-04-28T21:06:20.533Z,8.20
2019-04-28T21:09:09.563Z,8.30
2019-04-28T21:11:57.095Z,8.20
2019-04-28T21:14:44.076Z,8.20
2019-04-28T21:17:31.352Z,8.40
2019-04-28T21:20:18.519Z,8.10
2019-04-28T21:23:05.738Z,8.10
2019-04-28T21:25:52.504Z,8.40
2019-04-28T21:28:39.356Z,8.50
2019-04-28T21:31:26.204Z,8.50
2019-04-28T21:34:12.887Z,8.50
2019-04-28T21:37:00.368Z,8.60
2019-04-28T21:39:47.706Z,8.30
2019-04-28T21:42:52.630Z,8.40
2019-04-28T21:45:44.406Z,8.40
2019-04-28T21:48:33.158Z,8.40
2019-04-28T21:51:20.821Z,8.50
2019-04-28T21:54:07.978Z,8.50
2019-04-28T21:56:55.433Z,8.50
2019-04-28T21:59:42.165Z,8.50
2019-04-28T22:02:29.294Z,8.40
2019-04-28T22:05:29.896Z,8.30
2019-04-28T22:08:06.945Z,8.20
2019-04-28T22:10:54.105Z,8.30
2019-04-28T22:13:41.528Z,8.30
2019-04-28T22:16:29.060Z,8.40
2019-04-28T22:19:16.064Z,8.30
2019-04-28T22:22:03.099Z,8.30
2019-04-28T22:24:52.313Z,8.20
2019-04-28T22:27:41.688Z,8.30
2019-04-28T22:30:28.055Z,8.20
2019-04-28T22:33:14.780Z,8.30
2019-04-28T22:36:01.938Z,8.00
2019-04-28T22:38:48.890Z,8.10
2019-04-28T22:41:36.211Z,8.10
2019-04-28T22:44:23.648Z,8.00
2019-04-28T22:47:10.850Z,7.80
2019-04-28T22:49:57.834Z,7.60
2019-04-28T22:52:44.877Z,7.60
2019-04-28T22:55:33.625Z,7.80
2019-04-28T22:58:27.955Z,7.80
2019-04-28T23:01:16.750Z,7.70
2019-04-28T23:04:08.128Z,7.80
2019-04-28T23:06:55.534Z,7.80
2019-04-28T23:09:42.845Z,7.90
2019-04-28T23:12:30.145Z,7.80
2019-04-28T23:15:16.978Z,7.80
2019-04-28T23:18:04.360Z,7.90
2019-04-28T23:20:53.831Z,7.80
2019-04-28T23:23:41.238Z,7.80
2019-04-28T23:26:28.316Z,7.80
2019-04-28T23:29:15.133Z,7.90
2019-04-28T23:32:02.609Z,7.80
2019-04-28T23:34:49.658Z,7.70
2019-04-28T23:37:37.030Z,7.70
2019-04-28T23:40:24.028Z,7.80
2019-04-28T23:43:18.425Z,7.70
2019-04-28T23:46:05.425Z,7.70
2019-04-28T23:48:52.825Z,7.70
2019-04-28T23:51:41.396Z,7.70
2019-04-28T23:54:28.633Z,7.70
2019-04-28T23:57:15.937Z,7.70
